Aérodrome :
LOGIN :

S'inscrire | Disclaimer

   EN    FR    IT 

 










Légende :    VFR   VFR Marginal   IFR   IFR Intensif   IFR Très Intensif
Visi : 
Plafond : 
>= 8 km
>= 3000ft
5 à 8 km
1000 à 3000 ft
1500m à 5 km
500 à 1000 ft
800 à 1500m
200 à 500 ft
< 800m
< 200 ft
Symboles :   Orages  Brouillard  Fortes neiges  Fortes précipitations  Vent > 20 kt
SIGMETs :   Divers  Orages  Givrage  Turbulence  Onde Orograph.  Cendres Volcan.






- Altitude de l'aérodrome : 336 ft
- Code IATA : GCI


EGJB - Guernsey

DERNIER METAR :
  • 272050Z 28007KT 9999 FEW030 06/00 Q1016

METARs EXPIRÉS :
  • 272020Z 29006KT 9999 FEW030 06/00 Q1016
  • 271950Z 28006KT 9999 FEW032 05/01 Q1016
  • 271920Z 30006KT 9999 FEW032 06/M00 Q1015
  • 271850Z 30007KT 9999 FEW032 06/M00 Q1015

TAF TAF EGJB
Valide du 27 à 21h jusqu'au 28 à 06h UTC


271954Z 2721/2806 29008KT 9999 FEW026
BECMG 2722/2800 23005KT
BECMG 2801/2803 17013KT
TEMPO 2802/2806 7000 RA BKN007
ATIS : +44 1481 238 957



MET'MAP, la Météo Aéronautique d'un coup d'oeil ! - Copyright ORBIFLY Décembre 2007 - Disclaimer

ORBIFLY MET'MAP TEAM :

Programmation & Développement : Alexandra Zaïnal
Sur une idée originale de : Baudouin d'Aumeries
Assistance à la programmation : Marc-Olivier Méhu
Soutien technique & logistique : Manuel Goepfert

Contact : metmap@orbifly.com




SOURCES & CREDITS :

   NOAA